.
WxDataArchive / Data Records for 2015-06-29
2015-06-28 June 2015 2015-06-30

Data Records for Monday, 29 June 2015

Time	Temp	Chill	HIndex	Humid	Dewpt	 Wind 	HiWind	WindDir	Rain 	Barom
-----	----	-----	------	-----	-----	------	------	-------	-----	-----
00:00	64.0	64.0	64.0	77	56.6	0	0	---	0.00	29.849 
00:05	64.2	64.2	64.2	77	56.8	0	0	---	0.00	29.849 
00:10	64.5	64.5	64.5	77	57.1	0	0	---	0.00	29.849 
00:15	64.5	64.5	64.5	76	56.8	0	0	---	0.00	29.846 
00:20	64.5	64.5	64.5	75	56.4	0	0	---	0.00	29.846 
00:25	64.7	64.7	64.7	75	56.6	0	0	---	0.00	29.846 
00:30	64.8	64.8	64.8	76	57.0	0	0	---	0.00	29.846 
00:35	64.8	64.8	64.8	76	57.0	0	0	---	0.00	29.846 
00:40	64.8	64.8	64.8	76	57.0	0	0	---	0.00	29.846 
00:45	65.0	65.0	65.0	77	57.6	0	0	---	0.00	29.845 
00:50	65.0	65.0	65.0	76	57.2	0	0	---	0.00	29.845 
00:55	65.0	65.0	65.0	75	56.9	0	0	---	0.00	29.845 
01:00	65.0	65.0	65.0	75	56.9	0	0	---	0.00	29.845 
01:05	65.0	65.0	65.0	76	57.2	0	0	---	0.00	29.845 
01:10	65.2	65.2	65.2	76	57.4	0	0	---	0.00	29.845 
01:15	65.0	65.0	65.0	76	57.2	0	0	---	0.00	29.843 
01:20	65.0	65.0	65.0	76	57.2	0	0	---	0.00	29.843 
01:25	65.0	65.0	65.0	77	57.6	0	0	---	0.00	29.843 
01:30	65.0	65.0	65.0	77	57.6	0	0	---	0.00	29.842 
01:35	65.0	65.0	65.0	77	57.6	0	0	---	0.00	29.842 
01:40	64.8	64.8	64.8	76	57.0	0	0	---	0.00	29.842 
01:45	64.8	64.8	64.8	77	57.4	0	0	---	0.00	29.842 
01:50	64.8	64.8	64.8	77	57.4	0	0	---	0.00	29.842 
01:55	64.8	64.8	64.8	77	57.4	0	0	---	0.00	29.842 
02:00	64.8	64.8	64.8	76	57.0	0	0	---	0.00	29.834 
02:05	65.0	65.0	65.0	75	56.9	0	1	315	0.00	29.834 
02:10	65.0	65.0	65.0	75	56.9	0	0	---	0.00	29.834 
02:15	65.2	65.2	65.2	75	57.1	0	0	---	0.00	29.828 
02:20	65.2	65.2	65.2	75	57.1	0	0	---	0.00	29.828 
02:25	65.2	65.2	65.2	74	56.7	0	0	---	0.00	29.828 
02:30	65.2	65.2	65.2	76	57.4	0	0	---	0.00	29.821 
02:35	65.2	65.2	65.2	76	57.4	0	0	---	0.00	29.821 
02:40	65.0	65.0	65.0	77	57.6	0	0	---	0.00	29.821 
02:45	65.0	65.0	65.0	77	57.6	0	0	---	0.00	29.815 
02:50	64.8	64.8	64.8	78	57.8	0	0	---	0.00	29.815 
02:55	64.7	64.7	64.7	79	58.0	0	0	---	0.00	29.815 
03:00	64.5	64.5	64.5	79	57.8	0	0	---	0.00	29.811 
03:05	64.5	64.5	64.5	79	57.8	0	0	---	0.00	29.811 
03:10	64.5	64.5	64.5	80	58.2	0	0	---	0.00	29.811 
03:15	64.5	64.5	64.5	81	58.5	0	0	---	0.00	29.801 
03:20	64.5	64.5	64.5	81	58.5	0	0	---	0.00	29.801 
03:25	64.5	64.5	64.5	81	58.5	0	0	---	0.00	29.801 
03:30	64.3	64.3	64.3	81	58.3	0	0	---	0.00	29.801 
03:35	64.3	64.3	64.3	81	58.3	0	0	---	0.00	29.801 
03:40	64.3	64.3	64.3	81	58.3	0	0	---	0.00	29.801 
03:45	64.5	64.5	64.5	81	58.5	0	0	---	0.00	29.796 
03:50	64.5	64.5	64.5	81	58.5	0	0	---	0.00	29.796 
03:55	64.5	64.5	64.5	81	58.5	0	0	---	0.00	29.796 
04:00	64.5	64.5	64.5	81	58.5	0	0	---	0.00	29.794 
04:05	64.5	64.5	64.5	81	58.5	0	0	---	0.00	29.794 
04:10	64.5	64.5	64.5	81	58.5	0	0	---	0.00	29.794 
04:15	64.5	64.5	64.5	82	58.9	0	0	---	0.00	29.793 
04:20	64.5	64.5	64.5	82	58.9	0	1	315	0.00	29.793 
04:25	64.5	64.5	64.5	82	58.9	0	0	---	0.00	29.793 
04:30	64.5	64.5	64.5	83	59.2	0	0	---	0.00	29.792 
04:35	64.5	64.5	64.5	83	59.2	0	0	---	0.00	29.792 
04:40	64.5	64.5	64.5	83	59.2	0	0	---	0.00	29.792 
04:45	64.3	64.3	64.3	83	59.0	0	0	---	0.00	29.793 
04:50	64.3	64.3	64.3	84	59.4	0	0	---	0.00	29.793 
04:55	64.3	64.3	64.3	84	59.4	0	0	---	0.00	29.793 
05:00	64.3	64.3	64.3	84	59.4	0	0	---	0.00	29.797 
05:05	64.3	64.3	64.3	85	59.7	0	0	---	0.00	29.797 
05:10	64.3	64.3	64.3	85	59.7	0	0	---	0.00	29.797 
05:15	64.2	64.2	64.2	86	59.9	0	0	---	0.01	29.797 
05:20	64.0	64.0	64.0	86	59.7	0	0	---	0.00	29.797 
05:25	64.0	64.0	64.0	87	60.0	0	0	---	0.00	29.797 
05:30	63.9	63.9	63.9	88	60.3	0	0	---	0.00	29.798 
05:35	63.9	63.9	63.9	88	60.3	0	0	---	0.00	29.798 
05:40	63.9	63.9	63.9	88	60.3	0	0	---	0.01	29.798 
05:45	63.7	63.7	63.7	88	60.1	0	0	---	0.00	29.799 
05:50	63.5	63.5	63.5	89	60.2	0	0	---	0.00	29.799 
05:55	63.5	63.5	63.5	89	60.2	0	0	---	0.00	29.799 
06:00	63.4	63.4	63.4	90	60.4	0	0	---	0.00	29.801 
06:05	63.2	63.2	63.2	90	60.2	0	0	---	0.00	29.801 
06:10	63.1	63.1	63.1	90	60.1	0	0	---	0.00	29.801 
06:15	63.1	63.1	63.1	90	60.1	0	0	---	0.00	29.802 
06:20	62.9	62.9	62.9	91	60.2	0	0	---	0.00	29.802 
06:25	62.9	62.9	62.9	91	60.2	0	0	---	0.00	29.802 
06:30	62.9	62.9	62.9	91	60.2	0	0	---	0.00	29.803 
06:35	62.9	62.9	62.9	91	60.2	0	0	---	0.00	29.803 
06:40	62.9	62.9	62.9	92	60.5	0	0	---	0.00	29.803 
06:45	62.9	62.9	62.9	92	60.5	0	0	---	0.00	29.804 
06:50	62.9	62.9	62.9	92	60.5	0	0	---	0.00	29.804 
06:55	63.1	63.1	63.1	92	60.7	0	1	315	0.00	29.804 
07:00	63.1	63.1	63.1	92	60.7	0	1	315	0.00	29.807 
07:05	63.1	63.1	63.1	92	60.7	0	2	315	0.01	29.807 
07:10	63.1	63.1	63.1	92	60.7	0	2	315	0.00	29.807 
07:15	63.1	63.1	63.1	92	60.7	0	1	315	0.00	29.811 
07:20	63.1	63.1	63.1	92	60.7	0	1	315	0.00	29.811 
07:25	63.1	63.1	63.1	92	60.7	0	1	315	0.00	29.811 
07:30	62.9	62.9	62.9	92	60.5	0	1	315	0.00	29.812 
07:35	62.9	62.9	62.9	92	60.5	0	1	315	0.00	29.812 
07:40	62.7	62.7	62.7	91	60.0	0	1	315	0.00	29.812 
07:45	62.7	62.7	62.7	92	60.3	0	2	315	0.00	29.812 
07:50	62.7	62.7	62.7	92	60.3	0	2	315	0.00	29.812 
07:55	62.7	62.7	62.7	92	60.3	0	2	315	0.00	29.812 
08:00	62.7	62.7	62.7	92	60.3	0	1	315	0.00	29.811 
08:05	62.7	62.7	62.7	92	60.3	0	1	22	0.00	29.811 
08:10	62.7	62.7	62.7	92	60.3	0	2	90	0.00	29.811 
08:15	62.9	62.9	62.9	92	60.5	0	2	90	0.00	29.811 
08:20	62.9	62.9	62.9	92	60.5	1	4	90	0.00	29.811 
08:25	62.9	62.9	62.9	92	60.5	0	2	112	0.00	29.811 
08:30	62.9	62.9	62.9	92	60.5	0	1	112	0.00	29.814 
08:35	62.9	62.9	62.9	92	60.5	0	3	112	0.00	29.814 
08:40	62.7	62.7	62.7	92	60.3	0	1	112	0.00	29.814 
08:45	62.9	62.9	62.9	92	60.5	0	2	112	0.00	29.816 
08:50	62.9	62.9	62.9	92	60.5	0	1	112	0.00	29.816 
08:55	62.9	62.9	62.9	92	60.5	0	1	112	0.00	29.816 
09:00	62.9	62.9	62.9	92	60.5	0	2	112	0.00	29.817 
09:05	62.9	62.9	62.9	92	60.5	0	1	112	0.00	29.817 
09:10	62.9	62.9	62.9	92	60.5	0	2	112	0.00	29.817 
09:15	63.1	63.1	63.1	92	60.7	0	2	112	0.00	29.819 
09:20	63.1	63.1	63.1	92	60.7	1	3	112	0.00	29.819 
09:25	62.9	62.9	62.9	92	60.5	0	3	112	0.00	29.819 
09:30	62.9	62.9	62.9	92	60.5	1	3	112	0.00	29.818 
09:35	62.9	62.9	62.9	92	60.5	1	5	68	0.00	29.818 
09:40	62.9	62.9	62.9	93	60.8	0	2	68	0.00	29.818 
09:45	63.1	63.1	63.1	93	61.0	0	1	68	0.00	29.817 
09:50	63.2	63.2	63.2	93	61.1	1	4	68	0.00	29.817 
09:55	63.4	63.4	63.4	92	61.0	1	3	68	0.00	29.817 
10:00	63.4	63.4	63.4	92	61.0	0	3	68	0.00	29.815 
10:05	63.5	63.5	63.5	92	61.1	1	4	112	0.00	29.815 
10:10	63.9	63.9	63.9	92	61.5	0	3	158	0.00	29.815 
10:15	64.0	64.0	64.0	91	61.3	0	3	112	0.00	29.818 
10:20	64.2	64.2	64.2	90	61.2	1	4	112	0.00	29.818 
10:25	64.0	64.0	64.0	89	60.7	1	3	135	0.00	29.818 
10:30	64.0	64.0	64.0	89	60.7	0	2	135	0.00	29.821 
10:35	63.9	63.9	63.9	89	60.6	0	2	135	0.00	29.821 
10:40	63.9	63.9	63.9	89	60.6	0	2	135	0.00	29.821 
10:45	63.9	63.9	63.9	88	60.3	0	2	135	0.00	29.821 
10:50	63.9	63.9	63.9	88	60.3	0	2	135	0.00	29.821 
10:55	63.9	63.9	63.9	88	60.3	0	3	112	0.00	29.821 
11:00	63.9	63.9	63.9	88	60.3	1	4	135	0.00	29.821 
11:05	63.7	63.7	63.7	87	59.8	1	3	112	0.00	29.821 
11:10	63.5	63.5	63.5	87	59.6	0	2	112	0.00	29.821 
11:15	63.5	63.5	63.5	87	59.6	0	3	112	0.00	29.818 
11:20	63.5	63.5	63.5	85	58.9	2	6	90	0.00	29.818 
11:25	63.5	63.5	63.5	84	58.6	1	3	135	0.00	29.818 
11:30	63.9	63.9	63.9	84	59.0	1	3	248	0.00	29.814 
11:35	64.0	64.0	64.0	84	59.1	0	3	225	0.00	29.814 
11:40	63.9	63.9	63.9	82	58.3	2	7	90	0.00	29.814 
11:45	63.9	63.9	63.9	82	58.3	1	5	90	0.00	29.815 
11:50	64.0	64.0	64.0	82	58.4	1	3	158	0.00	29.815 
11:55	64.2	64.2	64.2	82	58.6	1	6	90	0.00	29.815 
12:00	64.2	64.2	64.2	81	58.2	1	4	90	0.00	29.811 
12:05	64.0	64.0	64.0	82	58.4	1	5	90	0.00	29.811 
12:10	64.2	64.2	64.2	82	58.6	0	2	90	0.00	29.811 
12:15	64.3	64.3	64.3	82	58.7	0	4	90	0.00	29.810 
12:20	64.3	64.3	64.3	81	58.3	1	9	135	0.00	29.810 
12:25	64.3	64.3	64.3	82	58.7	0	4	135	0.00	29.810 
12:30	64.3	64.3	64.3	81	58.3	1	6	135	0.00	29.813 
12:35	64.2	64.2	64.2	82	58.6	1	5	90	0.00	29.813 
12:40	64.2	64.2	64.2	82	58.6	1	4	90	0.00	29.813 
12:45	64.2	64.2	64.2	82	58.6	0	2	90	0.00	29.816 
12:50	64.2	64.2	64.2	82	58.6	1	6	90	0.00	29.816 
12:55	64.2	64.2	64.2	82	58.6	1	4	90	0.00	29.816 
13:00	64.0	64.0	64.0	83	58.7	2	5	90	0.00	29.818 
13:05	64.2	64.2	64.2	82	58.6	0	2	90	0.00	29.818 
13:10	64.3	64.3	64.3	83	59.0	0	2	90	0.00	29.818 
13:15	64.2	64.2	64.2	82	58.6	0	3	90	0.00	29.823 
13:20	64.2	64.2	64.2	83	58.9	1	4	90	0.00	29.823 
13:25	64.0	64.0	64.0	83	58.7	1	6	90	0.00	29.823 
13:30	63.9	63.9	63.9	83	58.6	1	4	68	0.00	29.822 
13:35	63.7	63.7	63.7	83	58.4	1	3	180	0.00	29.822 
13:40	63.5	63.5	63.5	84	58.6	2	7	90	0.00	29.822 
13:45	63.4	63.4	63.4	84	58.5	2	5	90	0.00	29.820 
13:50	63.4	63.4	63.4	84	58.5	1	5	68	0.00	29.820 
13:55	63.4	63.4	63.4	84	58.5	1	5	90	0.00	29.820 
14:00	63.4	63.4	63.4	84	58.5	0	4	90	0.00	29.816 
14:05	63.4	63.4	63.4	84	58.5	2	9	68	0.00	29.816 
14:10	63.2	63.2	63.2	84	58.3	1	6	68	0.00	29.816 
14:15	63.2	63.2	63.2	83	57.9	2	6	68	0.00	29.810 
14:20	63.4	63.4	63.4	83	58.1	2	5	90	0.00	29.810 
14:25	63.4	63.4	63.4	83	58.1	2	5	90	0.00	29.810 
14:30	63.4	63.4	63.4	82	57.8	1	6	90	0.00	29.810 
14:35	63.4	63.4	63.4	82	57.8	1	4	90	0.00	29.810 
14:40	63.4	63.4	63.4	82	57.8	1	4	90	0.00	29.810 
14:45	63.4	63.4	63.4	83	58.1	1	5	90	0.00	29.810 
14:50	63.4	63.4	63.4	83	58.1	1	7	68	0.00	29.810 
14:55	63.4	63.4	63.4	83	58.1	2	5	68	0.00	29.810 
15:00	63.2	63.2	63.2	83	57.9	2	5	68	0.00	29.808 
15:05	63.4	63.4	63.4	84	58.5	1	3	90	0.00	29.808 
15:10	63.4	63.4	63.4	84	58.5	1	4	90	0.00	29.808 
15:15	63.4	63.4	63.4	84	58.5	2	5	90	0.00	29.807 
15:20	63.2	63.2	63.2	85	58.6	2	4	68	0.00	29.807 
15:25	63.1	63.1	63.1	85	58.5	1	4	68	0.00	29.807 
15:30	63.1	63.1	63.1	86	58.8	0	2	68	0.00	29.806 
15:35	63.1	63.1	63.1	86	58.8	1	4	68	0.00	29.806 
15:40	63.1	63.1	63.1	87	59.2	1	3	90	0.00	29.806 
15:45	63.1	63.1	63.1	87	59.2	2	5	90	0.00	29.802 
15:50	62.9	62.9	62.9	88	59.3	1	3	90	0.00	29.802 
15:55	62.9	62.9	62.9	88	59.3	1	5	90	0.00	29.802 
16:00	63.1	63.1	63.1	88	59.5	2	5	90	0.00	29.794 
16:05	63.1	63.1	63.1	88	59.5	1	5	90	0.00	29.794 
16:10	63.1	63.1	63.1	88	59.5	2	5	90	0.00	29.794 
16:15	62.9	62.9	62.9	88	59.3	2	4	90	0.01	29.794 
16:20	62.9	62.9	62.9	89	59.6	2	5	90	0.00	29.794 
16:25	62.9	62.9	62.9	89	59.6	1	5	68	0.00	29.794 
16:30	62.9	62.9	62.9	89	59.6	1	4	68	0.00	29.792 
16:35	62.9	62.9	62.9	90	59.9	0	2	68	0.00	29.792 
16:40	62.9	62.9	62.9	90	59.9	2	6	90	0.00	29.792 
16:45	62.6	62.6	62.6	91	59.9	1	4	90	0.00	29.792 
16:50	62.4	62.4	62.4	91	59.7	1	4	68	0.00	29.792 
16:55	62.6	62.6	62.6	91	59.9	1	3	68	0.00	29.792 
17:00	62.6	62.6	62.6	92	60.2	0	3	68	0.00	29.791 
17:05	62.4	62.4	62.4	91	59.7	2	7	90	0.00	29.791 
17:10	62.4	62.4	62.4	92	60.0	1	4	90	0.00	29.791 
17:15	62.6	62.6	62.6	92	60.2	1	4	90	0.00	29.791 
17:20	62.6	62.6	62.6	91	59.9	0	2	90	0.00	29.791 
17:25	62.7	62.7	62.7	91	60.0	0	1	90	0.00	29.791 
17:30	62.9	62.9	62.9	91	60.2	1	3	90	0.00	29.787 
17:35	62.9	62.9	62.9	91	60.2	0	3	90	0.00	29.787 
17:40	62.9	62.9	62.9	91	60.2	1	4	90	0.00	29.787 
17:45	62.9	62.9	62.9	91	60.2	0	2	90	0.00	29.785 
17:50	62.9	62.9	62.9	92	60.5	1	4	90	0.00	29.785 
17:55	62.7	62.7	62.7	92	60.3	1	4	90	0.00	29.785 
18:00	62.9	62.9	62.9	92	60.5	0	1	90	0.00	29.788 
18:05	62.9	62.9	62.9	92	60.5	1	4	90	0.00	29.788 
18:10	62.9	62.9	62.9	92	60.5	0	2	90	0.00	29.788 
18:15	62.9	62.9	62.9	92	60.5	1	4	90	0.00	29.787 
18:20	62.7	62.7	62.7	92	60.3	0	3	90	0.00	29.787 
18:25	62.7	62.7	62.7	91	60.0	1	4	90	0.00	29.787 
18:30	62.7	62.7	62.7	91	60.0	1	4	90	0.00	29.781 
18:35	62.7	62.7	62.7	91	60.0	1	3	90	0.00	29.781 
18:40	62.7	62.7	62.7	91	60.0	1	5	90	0.00	29.781 
18:45	62.7	62.7	62.7	91	60.0	1	3	90	0.00	29.782 
18:50	62.7	62.7	62.7	91	60.0	0	2	90	0.00	29.782 
18:55	62.7	62.7	62.7	90	59.7	1	5	90	0.00	29.782 
19:00	62.9	62.9	62.9	90	59.9	1	3	90	0.00	29.782 
19:05	62.9	62.9	62.9	90	59.9	1	3	90	0.00	29.782 
19:10	63.1	63.1	63.1	91	60.4	0	1	90	0.00	29.782 
19:15	63.2	63.2	63.2	90	60.2	0	1	90	0.00	29.782 
19:20	63.2	63.2	63.2	90	60.2	0	2	90	0.00	29.782 
19:25	63.2	63.2	63.2	90	60.2	0	4	90	0.00	29.782 
19:30	63.1	63.1	63.1	90	60.1	1	3	90	0.00	29.787 
19:35	62.9	62.9	62.9	90	59.9	0	2	90	0.00	29.787 
19:40	62.9	62.9	62.9	91	60.2	0	2	90	0.00	29.787 
19:45	62.9	62.9	62.9	91	60.2	0	1	90	0.00	29.788 
19:50	62.9	62.9	62.9	91	60.2	0	1	90	0.00	29.788 
19:55	62.9	62.9	62.9	91	60.2	0	1	90	0.00	29.788 
20:00	62.9	62.9	62.9	91	60.2	0	0	---	0.00	29.793 
20:05	62.9	62.9	62.9	91	60.2	0	1	90	0.00	29.793 
20:10	62.9	62.9	62.9	91	60.2	0	0	---	0.00	29.793 
20:15	63.1	63.1	63.1	91	60.4	0	0	---	0.00	29.792 
20:20	63.1	63.1	63.1	91	60.4	0	2	90	0.00	29.792 
20:25	62.9	62.9	62.9	90	59.9	0	1	90	0.00	29.792 
20:30	62.9	62.9	62.9	91	60.2	0	0	---	0.00	29.790 
20:35	63.1	63.1	63.1	91	60.4	0	1	90	0.00	29.790 
20:40	63.1	63.1	63.1	91	60.4	0	0	---	0.00	29.790 
20:45	63.1	63.1	63.1	90	60.1	0	0	---	0.00	29.790 
20:50	63.1	63.1	63.1	91	60.4	0	0	---	0.00	29.790 
20:55	63.1	63.1	63.1	90	60.1	0	0	---	0.00	29.790 
21:00	63.1	63.1	63.1	90	60.1	0	0	---	0.00	29.792 
21:05	63.1	63.1	63.1	90	60.1	0	0	---	0.00	29.792 
21:10	63.1	63.1	63.1	90	60.1	0	0	---	0.00	29.792 
21:15	63.1	63.1	63.1	91	60.4	0	0	---	0.00	29.791 
21:20	63.1	63.1	63.1	91	60.4	0	0	---	0.00	29.791 
21:25	63.1	63.1	63.1	91	60.4	0	0	---	0.00	29.791 
21:30	62.9	62.9	62.9	91	60.2	0	0	---	0.00	29.785 
21:35	62.9	62.9	62.9	91	60.2	0	0	---	0.00	29.785 
21:40	62.9	62.9	62.9	91	60.2	0	0	---	0.00	29.785 
21:45	62.9	62.9	62.9	91	60.2	0	0	---	0.00	29.790 
21:50	62.9	62.9	62.9	91	60.2	0	0	---	0.00	29.790 
21:55	62.9	62.9	62.9	91	60.2	0	0	---	0.00	29.790 
22:00	62.9	62.9	62.9	91	60.2	0	0	---	0.00	29.792 
22:05	62.9	62.9	62.9	91	60.2	0	0	---	0.00	29.792 
22:10	62.9	62.9	62.9	91	60.2	0	0	---	0.00	29.792 
22:15	62.9	62.9	62.9	91	60.2	0	0	---	0.00	29.793 
22:20	62.9	62.9	62.9	91	60.2	0	0	---	0.00	29.793 
22:25	62.9	62.9	62.9	91	60.2	0	0	---	0.00	29.793 
22:30	62.9	62.9	62.9	91	60.2	0	0	---	0.00	29.798 
22:35	62.9	62.9	62.9	91	60.2	0	0	---	0.00	29.798 
22:40	62.9	62.9	62.9	91	60.2	0	0	---	0.00	29.798 
22:45	62.9	62.9	62.9	91	60.2	0	0	---	0.00	29.802 
22:50	62.9	62.9	62.9	91	60.2	0	0	---	0.00	29.802 
22:55	62.9	62.9	62.9	91	60.2	0	0	---	0.00	29.802 
23:00	62.9	62.9	62.9	91	60.2	0	0	---	0.00	29.798 
23:05	62.9	62.9	62.9	91	60.2	0	1	90	0.00	29.798 
23:10	62.9	62.9	62.9	91	60.2	0	1	90	0.00	29.798 
23:15	62.7	62.7	62.7	91	60.0	0	0	---	0.00	29.794 
23:20	62.7	62.7	62.7	91	60.0	0	0	---	0.00	29.794 
23:25	62.6	62.6	62.6	91	59.9	0	0	---	0.00	29.794 
23:30	62.4	62.4	62.4	91	59.7	0	2	90	0.00	29.787 
23:35	62.4	62.4	62.4	91	59.7	0	0	---	0.00	29.787 
23:40	62.3	62.3	62.3	91	59.6	0	0	---	0.00	29.787 
23:45	62.1	62.1	62.1	91	59.4	0	0	---	0.00	29.792 
23:50	62.0	62.0	62.0	91	59.3	0	0	---	0.00	29.792 
23:55	61.6	61.6	61.6	91	58.9	0	0	---	0.00	29.792 

CoCoRaHS
IN-AL-39
A2 Web Hosting
Creative Commons License
GoDaddy
search engine by freefind advanced

loaded 2018-11-20 08:17:27 • last modified 2010-11-18 10:43:29
Privacy PolicyDisclaimer
• wx.awcolley.com is powered by PmWiki v.2002016 •
• all content (unless otherwise noted) © 2018 A W Colley